Accueil
METAR-TAF:

METAR-TAF

Aéroports :

Aéroport de Pago Pago

Pago Pago, Îles mineures éloignées des États-Unis

latitude: 14-20S, longitude: 170-43W, altitude: 3 m

Observation

Le bulletin a été fait il y a 35 minutes, à 20:50 UTC
Vent 4 kt de direction variable
Température 28°C
Humidité 84%
Pression 1013 hPa
Visibilité: 19.3 km
Nuages épars à une hauteur de 1800 ft

METAR: NSTU 192050Z VRB04KT 12SM SCT018 28/25 A2991 RMK SLP130 8/100 T02810247 52012

Heure: 10:25 (21:25 UTC)

Prévision

Le bulletin a été fait il y a 3 heures et 47 minutes, à 17:38 UTC
Prévision valable du 19 à 18 UTC au 20 à 18 UTC
Vent 6 kt de direction variable
Visibilité: 10 km
Quelques nuages à une hauteur de 2000 ft

TAF: NSTU 191738Z 1918/2018 VRB06KT P6SM FEW020

Observations et prévisions météorologiques de plus de 4000 aéroports (messages METAR et TAF).

Les stations disponibles sont représentées par des disques jaunes et rouges sur la carte.

Passer la souris dessus pour voir le nom de la station.

Cliquer dessus pour voir les observations et prévisions météorologiques.

Pour changer de carte: cliquez sur les boutons verts avec une croix noire pour zoomer, sur le bouton vert avec un tiret pour effectuer un zoom arrière, ou sur les flèches vertes pour les cartes adjacentes.


METAR-TAF: